Time;durP1;ratioP1;P1;durP2;ratioP2;P2;SDS_P1;SDS_P2;PMS_P1;PMS_P2;Temp;Humidity;BMP_temperature;BMP_pressure;BME280_temperature;BME280_humidity;BME280_pressure;Samples;Min_cycle;Max_cycle;Signal;HPM_P1;HPM_P2
2021/09/18 00:01:44;;;;;;;15.30;9.68;;;12.60;99.90;;;;;;5095214;28;20024;-81
2021/09/18 00:04:10;;;;;;;12.13;9.52;;;12.60;99.90;;;;;;5094415;28;20024;-80
2021/09/18 00:06:36;;;;;;;12.25;8.98;;;12.60;99.90;;;;;;5095555;28;20020;-81
2021/09/18 00:09:02;;;;;;;16.00;10.63;;;12.50;99.90;;;;;;5094858;28;20055;-80
2021/09/18 00:11:28;;;;;;;13.65;8.40;;;12.50;99.90;;;;;;5094044;28;20107;-81
2021/09/18 00:13:53;;;;;;;13.93;9.15;;;12.50;99.90;;;;;;5094424;28;20528;-80
2021/09/18 00:16:19;;;;;;;9.43;7.82;;;12.50;99.90;;;;;;5095262;28;20469;-80
2021/09/18 00:18:45;;;;;;;9.75;6.55;;;12.50;99.90;;;;;;5091712;28;20028;-81
2021/09/18 00:21:10;;;;;;;9.65;7.20;;;12.40;99.90;;;;;;5094579;28;20028;-80
2021/09/18 00:23:36;;;;;;;11.38;7.82;;;12.40;99.90;;;;;;5089939;28;20020;-81
2021/09/18 00:26:02;;;;;;;11.57;8.43;;;12.40;99.90;;;;;;5093825;28;20012;-81
2021/09/18 00:28:27;;;;;;;8.15;6.90;;;12.30;99.90;;;;;;5092542;28;20622;-81
2021/09/18 00:30:53;;;;;;;7.22;6.07;;;12.40;99.90;;;;;;5093652;28;20024;-81
2021/09/18 00:33:19;;;;;;;10.13;7.38;;;12.30;99.90;;;;;;5094134;28;20016;-81
2021/09/18 00:35:45;;;;;;;7.65;6.65;;;12.40;99.90;;;;;;5094216;28;20024;-81
2021/09/18 00:38:12;;;;;;;8.52;5.38;;;12.40;99.90;;;;;;5091486;28;20405;-80
2021/09/18 00:40:38;;;;;;;7.80;4.68;;;12.30;99.90;;;;;;5089680;28;20040;-81
2021/09/18 00:43:04;;;;;;;4.55;4.10;;;12.30;99.90;;;;;;5081679;28;20028;-81
2021/09/18 00:45:30;;;;;;;4.40;4.00;;;12.30;99.90;;;;;;5093658;28;20065;-81
2021/09/18 00:47:55;;;;;;;4.65;3.83;;;12.30;99.90;;;;;;5092511;28;20392;-81
2021/09/18 00:50:21;;;;;;;6.47;4.22;;;12.30;99.90;;;;;;5094352;28;20020;-81
2021/09/18 00:52:48;;;;;;;6.50;4.40;;;12.30;99.90;;;;;;5093215;28;20111;-81
2021/09/18 00:55:15;;;;;;;4.80;3.72;;;12.30;99.90;;;;;;5094487;28;20024;-81
2021/09/18 00:57:41;;;;;;;6.70;3.80;;;12.30;99.90;;;;;;5093507;28;20032;-81
2021/09/18 01:00:09;;;;;;;3.85;3.53;;;12.30;99.90;;;;;;5094215;28;20016;-81
2021/09/18 01:02:35;;;;;;;3.70;3.40;;;12.30;99.90;;;;;;5092209;28;20123;-81
2021/09/18 01:05:02;;;;;;;6.22;4.40;;;12.30;99.90;;;;;;5094266;28;20098;-81
2021/09/18 01:07:28;;;;;;;4.70;4.22;;;12.30;99.90;;;;;;5094220;28;20028;-81
2021/09/18 01:09:54;;;;;;;6.28;4.30;;;12.30;99.90;;;;;;5093329;28;20359;-80
2021/09/18 01:12:20;;;;;;;6.03;4.80;;;12.20;99.90;;;;;;5091543;28;20469;-80
2021/09/18 01:14:46;;;;;;;7.93;4.93;;;12.20;99.90;;;;;;5093434;28;20042;-80
2021/09/18 01:17:13;;;;;;;4.80;4.40;;;12.20;99.90;;;;;;5082795;28;20045;-81
2021/09/18 01:19:39;;;;;;;3.42;2.47;;;12.20;99.90;;;;;;5091957;28;20031;-81
2021/09/18 01:22:06;;;;;;;2.55;2.35;;;12.10;99.90;;;;;;5092497;28;20020;-81
2021/09/18 01:24:32;;;;;;;14.45;7.82;;;12.00;99.90;;;;;;5091897;28;20020;-81
2021/09/18 01:26:58;;;;;;;8.32;4.13;;;11.90;99.90;;;;;;5092063;28;20427;-81
2021/09/18 01:29:23;;;;;;;2.40;2.15;;;11.90;99.90;;;;;;5093047;28;20080;-81
2021/09/18 01:31:49;;;;;;;5.15;3.30;;;11.80;99.90;;;;;;5092637;28;20024;-80
2021/09/18 01:34:20;;;;;;;2.50;1.90;;;11.70;99.90;;;;;;5091640;28;20085;-81
2021/09/18 01:36:46;;;;;;;2.17;1.98;;;11.70;99.90;;;;;;5093262;28;20082;-81
2021/09/18 01:39:14;;;;;;;2.20;2.00;;;11.70;99.90;;;;;;5090243;28;20038;-81
2021/09/18 01:41:41;;;;;;;2.00;1.70;;;11.60;99.90;;;;;;5092281;28;20476;-81
2021/09/18 01:44:07;;;;;;;2.17;1.50;;;11.60;99.90;;;;;;5092729;28;20016;-81
2021/09/18 01:46:33;;;;;;;4.95;3.80;;;11.50;99.90;;;;;;5092374;28;20131;-81
2021/09/18 01:48:59;;;;;;;2.38;2.17;;;11.50;99.90;;;;;;5090496;28;20385;-81
2021/09/18 01:51:27;;;;;;;4.70;2.00;;;11.50;99.90;;;;;;5092598;28;20024;-81
2021/09/18 01:53:53;;;;;;;2.03;1.77;;;11.50;99.90;;;;;;5091315;28;20042;-81
2021/09/18 01:56:19;;;;;;;2.17;1.50;;;11.50;99.90;;;;;;5092099;28;20480;-81
2021/09/18 01:58:44;;;;;;;2.10;1.88;;;11.40;99.90;;;;;;5092572;28;20027;-80
2021/09/18 02:01:10;;;;;;;1.80;1.70;;;11.50;99.90;;;;;;5093312;28;20031;-81
2021/09/18 02:03:36;;;;;;;1.60;1.50;;;11.50;99.90;;;;;;5091182;28;20053;-81
2021/09/18 02:06:02;;;;;;;1.30;1.20;;;11.50;99.90;;;;;;5092040;28;20023;-81
2021/09/18 02:08:28;;;;;;;2.05;1.60;;;11.40;99.90;;;;;;5092485;28;20032;-81
2021/09/18 02:10:56;;;;;;;2.05;1.63;;;11.40;99.90;;;;;;5072148;28;20397;-81
2021/09/18 02:13:22;;;;;;;1.73;1.63;;;11.40;99.90;;;;;;5082749;28;20033;-80
2021/09/18 02:15:48;;;;;;;2.42;1.50;;;11.40;99.90;;;;;;5077785;28;20020;-81
2021/09/18 02:18:13;;;;;;;2.60;2.10;;;11.40;99.90;;;;;;5081632;28;20032;-81
2021/09/18 02:20:41;;;;;;;4.85;3.10;;;11.40;99.90;;;;;;5091833;28;20055;-81
2021/09/18 02:23:08;;;;;;;3.00;2.20;;;11.40;99.90;;;;;;5088732;28;20058;-81
2021/09/18 02:25:35;;;;;;;2.35;2.15;;;11.40;99.90;;;;;;5092819;28;20073;-81
2021/09/18 02:28:01;;;;;;;2.03;1.90;;;11.40;99.90;;;;;;5074991;28;20075;-81
2021/09/18 02:30:30;;;;;;;2.90;1.52;;;11.40;99.90;;;;;;5091514;28;20128;-81
2021/09/18 02:32:57;;;;;;;1.60;1.50;;;11.40;99.90;;;;;;5089453;28;20106;-81
2021/09/18 02:35:26;;;;;;;1.70;1.10;;;11.30;99.90;;;;;;5092965;28;20020;-81
2021/09/18 02:37:53;;;;;;;3.45;1.55;;;11.30;99.90;;;;;;5091933;28;20609;-80
2021/09/18 02:40:20;;;;;;;2.47;2.28;;;11.30;99.90;;;;;;5091479;28;20055;-80
2021/09/18 02:42:50;;;;;;;3.28;1.60;;;11.30;99.90;;;;;;5092026;28;20123;-81
2021/09/18 02:45:16;;;;;;;2.53;2.28;;;11.30;99.90;;;;;;5091509;28;20396;-80
2021/09/18 02:47:43;;;;;;;1.67;1.58;;;11.30;99.90;;;;;;5092830;28;20054;-80
2021/09/18 02:50:11;;;;;;;3.15;1.45;;;11.30;99.90;;;;;;5090615;28;20051;-80
2021/09/18 02:52:37;;;;;;;2.38;2.00;;;11.30;99.90;;;;;;5091692;28;20107;-80
2021/09/18 02:55:04;;;;;;;1.73;1.63;;;11.30;99.90;;;;;;5091518;28;20520;-80
2021/09/18 02:57:30;;;;;;;2.30;1.48;;;11.20;99.90;;;;;;5092344;28;20067;-80
2021/09/18 02:59:56;;;;;;;1.67;1.50;;;11.20;99.90;;;;;;5085590;28;20055;-80
2021/09/18 03:02:22;;;;;;;1.73;1.60;;;11.20;99.90;;;;;;5090867;28;20043;-80
2021/09/18 03:04:47;;;;;;;2.30;2.03;;;11.30;99.90;;;;;;5090121;28;20020;-80
2021/09/18 03:07:13;;;;;;;4.72;2.83;;;11.20;99.90;;;;;;5077751;28;20064;-80
2021/09/18 03:09:39;;;;;;;3.80;3.38;;;11.30;99.90;;;;;;5088113;28;20389;-80
2021/09/18 03:12:04;;;;;;;5.25;4.50;;;11.30;99.90;;;;;;5091310;28;20020;-80
2021/09/18 03:14:30;;;;;;;5.25;3.83;;;11.30;99.90;;;;;;5090457;28;20477;-80
2021/09/18 03:16:56;;;;;;;2.63;2.42;;;11.30;99.90;;;;;;5091296;28;20370;-80
2021/09/18 03:19:21;;;;;;;2.70;2.50;;;11.30;99.90;;;;;;5091236;28;20046;-80
2021/09/18 03:21:47;;;;;;;2.72;2.42;;;11.30;99.90;;;;;;5091388;28;20107;-81
2021/09/18 03:24:13;;;;;;;3.28;2.75;;;11.30;99.90;;;;;;5088412;28;20016;-81
2021/09/18 03:26:42;;;;;;;3.83;3.53;;;11.20;99.90;;;;;;5089162;28;20437;-81
2021/09/18 03:29:08;;;;;;;4.28;3.97;;;11.20;99.90;;;;;;5078321;28;20032;-80
2021/09/18 03:31:33;;;;;;;4.97;4.57;;;11.20;99.90;;;;;;5091344;28;20050;-81
2021/09/18 03:33:59;;;;;;;9.50;5.93;;;11.20;99.90;;;;;;5087152;28;20086;-80
2021/09/18 03:36:25;;;;;;;9.73;7.30;;;11.10;99.90;;;;;;5094132;28;20411;-80
2021/09/18 03:38:50;;;;;;;6.93;6.15;;;11.10;99.90;;;;;;5094136;28;20036;-80
2021/09/18 03:41:16;;;;;;;6.75;6.05;;;11.20;99.90;;;;;;5095055;28;20453;-80
2021/09/18 03:43:41;;;;;;;6.70;5.95;;;11.10;99.90;;;;;;5093505;28;20027;-80
2021/09/18 03:46:07;;;;;;;7.43;6.68;;;11.10;99.90;;;;;;5094636;28;20473;-80
2021/09/18 03:48:33;;;;;;;7.05;6.35;;;11.10;99.90;;;;;;5094525;28;20062;-80
2021/09/18 03:50:59;;;;;;;7.68;6.43;;;11.10;99.90;;;;;;5095306;28;20104;-80
2021/09/18 03:53:24;;;;;;;7.15;6.20;;;11.10;99.90;;;;;;5092093;28;20427;-80
2021/09/18 03:55:50;;;;;;;11.85;9.50;;;11.10;99.90;;;;;;5083196;28;20021;-80
2021/09/18 03:58:16;;;;;;;8.05;7.15;;;11.00;99.90;;;;;;5090950;28;20105;-80
2021/09/18 04:00:42;;;;;;;12.10;7.97;;;11.00;99.90;;;;;;5089617;28;20025;-81
2021/09/18 04:03:07;;;;;;;8.85;7.90;;;11.10;99.90;;;;;;5076204;28;20085;-80
2021/09/18 04:05:33;;;;;;;9.02;7.95;;;11.10;99.90;;;;;;5075328;28;20526;-81
2021/09/18 04:07:59;;;;;;;10.27;8.15;;;11.10;99.90;;;;;;5077850;28;20032;-81
2021/09/18 04:10:24;;;;;;;9.30;8.02;;;11.10;99.90;;;;;;5088700;28;20030;-81
2021/09/18 04:12:50;;;;;;;11.10;8.57;;;11.10;99.90;;;;;;5077032;28;20091;-81
2021/09/18 04:15:15;;;;;;;12.90;9.52;;;11.10;99.90;;;;;;5094964;28;20032;-80
2021/09/18 04:17:41;;;;;;;9.10;8.20;;;11.10;99.90;;;;;;5094920;28;20028;-80
2021/09/18 04:20:08;;;;;;;11.38;8.60;;;11.10;99.90;;;;;;5091766;28;20074;-80
2021/09/18 04:22:34;;;;;;;10.07;8.50;;;11.10;99.90;;;;;;5091559;28;20025;-81
2021/09/18 04:25:00;;;;;;;17.13;14.30;;;11.10;99.90;;;;;;5095030;28;20495;-81
2021/09/18 04:27:25;;;;;;;12.40;11.02;;;11.10;99.90;;;;;;5091267;28;20059;-81
2021/09/18 04:29:51;;;;;;;12.13;10.77;;;11.10;99.90;;;;;;5092279;28;20455;-81
2021/09/18 04:32:16;;;;;;;12.52;10.82;;;11.10;99.90;;;;;;5093780;28;20016;-81
2021/09/18 04:34:42;;;;;;;14.48;10.35;;;11.10;99.90;;;;;;5093711;28;20435;-81
2021/09/18 04:37:07;;;;;;;14.50;10.75;;;11.10;99.90;;;;;;5094300;28;20024;-81
2021/09/18 04:39:33;;;;;;;12.93;10.35;;;11.10;99.90;;;;;;5085871;28;20024;-81
2021/09/18 04:41:59;;;;;;;13.52;10.88;;;11.10;99.90;;;;;;5094806;28;20027;-81
2021/09/18 04:44:25;;;;;;;12.10;10.27;;;11.20;99.90;;;;;;5081410;28;20028;-80
2021/09/18 04:46:50;;;;;;;14.65;11.05;;;11.10;99.90;;;;;;5084636;28;20020;-81
2021/09/18 04:49:16;;;;;;;12.15;9.68;;;11.10;99.90;;;;;;5088202;28;20036;-81
2021/09/18 04:51:42;;;;;;;11.98;9.82;;;11.10;99.90;;;;;;5094652;28;20030;-81
2021/09/18 04:54:07;;;;;;;16.30;12.98;;;11.10;99.90;;;;;;5088209;28;20032;-81
2021/09/18 04:56:33;;;;;;;14.13;11.50;;;11.10;99.90;;;;;;5088101;28;20074;-81
2021/09/18 04:59:01;;;;;;;13.63;11.18;;;11.10;99.90;;;;;;5081747;28;20062;-81
2021/09/18 05:01:27;;;;;;;13.00;10.38;;;11.10;99.90;;;;;;5082376;28;20021;-81
2021/09/18 05:03:52;;;;;;;17.40;13.20;;;11.10;99.90;;;;;;5082262;27;20044;-81
2021/09/18 05:06:18;;;;;;;14.35;10.95;;;11.10;99.90;;;;;;5086867;28;20024;-81
2021/09/18 05:08:44;;;;;;;11.95;10.15;;;11.00;99.90;;;;;;5083733;28;20094;-81
2021/09/18 05:11:12;;;;;;;12.57;11.02;;;11.00;99.90;;;;;;5084714;28;20020;-81
2021/09/18 05:13:38;;;;;;;11.18;10.00;;;11.00;99.90;;;;;;5080417;28;20524;-81
2021/09/18 05:16:03;;;;;;;16.70;13.52;;;11.00;99.90;;;;;;5082248;28;20063;-81
2021/09/18 05:18:30;;;;;;;389.05;151.38;;;11.00;99.90;;;;;;5075865;28;20050;-81
2021/09/18 05:20:56;;;;;;;73.40;30.45;;;11.00;99.90;;;;;;5077674;28;20017;-81
2021/09/18 05:23:22;;;;;;;19.38;12.85;;;11.00;99.90;;;;;;5079245;28;20097;-80
2021/09/18 05:25:47;;;;;;;22.13;13.07;;;11.00;99.90;;;;;;5083410;28;20047;-81
2021/09/18 05:28:13;;;;;;;17.20;11.35;;;11.00;99.90;;;;;;5077952;28;20020;-81
2021/09/18 05:30:39;;;;;;;14.93;11.30;;;11.00;99.90;;;;;;5084848;28;20103;-81
2021/09/18 05:33:05;;;;;;;15.75;11.40;;;11.00;99.90;;;;;;5086420;28;20020;-81
2021/09/18 05:35:31;;;;;;;20.63;12.38;;;11.00;99.90;;;;;;5088421;28;20470;-81
2021/09/18 05:37:57;;;;;;;15.13;11.85;;;11.00;99.90;;;;;;5076834;28;20127;-80
2021/09/18 05:40:25;;;;;;;15.57;12.05;;;11.00;99.90;;;;;;5081986;28;20472;-81
2021/09/18 05:42:51;;;;;;;18.23;11.77;;;11.00;99.90;;;;;;5080935;28;20477;-81
2021/09/18 05:45:17;;;;;;;14.00;12.25;;;11.00;99.90;;;;;;5082051;28;20112;-81
2021/09/18 05:47:42;;;;;;;14.82;11.77;;;11.00;99.90;;;;;;5074387;28;20115;-82
2021/09/18 05:50:08;;;;;;;15.75;11.82;;;11.00;99.90;;;;;;5085368;28;20062;-81
2021/09/18 05:52:34;;;;;;;15.30;12.35;;;11.00;99.90;;;;;;5072027;28;20104;-82
2021/09/18 05:55:00;;;;;;;17.33;12.38;;;11.00;99.90;;;;;;5083773;28;20120;-81
2021/09/18 05:57:25;;;;;;;16.38;12.15;;;11.10;99.90;;;;;;5080584;28;20052;-82
2021/09/18 05:59:51;;;;;;;14.75;11.65;;;11.10;99.90;;;;;;5090567;28;20035;-81
2021/09/18 06:02:16;;;;;;;17.27;13.15;;;11.10;99.90;;;;;;5091717;28;20051;-81
2021/09/18 06:04:42;;;;;;;14.63;11.40;;;11.10;99.90;;;;;;5090258;28;20548;-82
2021/09/18 06:07:09;;;;;;;17.15;12.13;;;11.10;99.90;;;;;;5090392;28;20111;-81
2021/09/18 06:09:34;;;;;;;15.57;12.07;;;11.10;99.90;;;;;;5090126;28;20028;-82
2021/09/18 06:12:00;;;;;;;15.38;12.07;;;11.20;99.90;;;;;;5091923;28;20031;-83
2021/09/18 06:14:25;;;;;;;15.82;12.52;;;11.20;99.90;;;;;;5089068;28;20554;-83
2021/09/18 06:16:51;;;;;;;14.48;11.55;;;11.20;99.90;;;;;;5090950;28;20095;-83
2021/09/18 06:19:19;;;;;;;13.60;10.70;;;11.20;99.90;;;;;;5091012;28;20504;-81
2021/09/18 06:21:46;;;;;;;13.57;10.88;;;11.30;99.90;;;;;;5091092;28;20020;-82
2021/09/18 06:24:13;;;;;;;13.55;10.80;;;11.30;99.90;;;;;;5087377;28;20123;-81
2021/09/18 06:26:39;;;;;;;13.48;11.32;;;11.30;99.90;;;;;;5072393;28;20037;-82
2021/09/18 06:29:06;;;;;;;13.43;11.13;;;11.30;99.90;;;;;;5082286;28;20032;-82
2021/09/18 06:31:32;;;;;;;12.43;9.73;;;11.30;99.90;;;;;;5091227;28;20074;-82
2021/09/18 06:33:57;;;;;;;12.95;10.75;;;11.30;99.90;;;;;;5090572;28;20044;-83
2021/09/18 06:36:23;;;;;;;12.63;10.23;;;11.30;99.90;;;;;;5103078;28;20394;-82
2021/09/18 06:38:49;;;;;;;13.45;10.13;;;11.30;99.90;;;;;;5097829;28;21585;-81
2021/09/18 06:41:15;;;;;;;13.88;10.52;;;11.30;99.90;;;;;;5091645;28;20059;-82
2021/09/18 06:43:40;;;;;;;12.02;9.23;;;11.30;99.90;;;;;;5088886;28;20500;-82
2021/09/18 06:46:06;;;;;;;13.60;10.98;;;11.30;99.90;;;;;;5091638;28;20043;-82
2021/09/18 06:48:32;;;;;;;10.30;9.20;;;11.20;99.90;;;;;;5089983;28;20074;-81
2021/09/18 06:50:58;;;;;;;10.55;9.45;;;11.30;99.90;;;;;;5090726;28;20036;-81
2021/09/18 06:53:23;;;;;;;11.93;9.30;;;11.30;99.90;;;;;;5088726;28;20021;-82
2021/09/18 06:55:49;;;;;;;11.00;8.52;;;11.40;99.90;;;;;;5091042;28;20101;-81
2021/09/18 06:58:15;;;;;;;10.73;8.38;;;11.40;99.90;;;;;;5086265;28;20040;-82
2021/09/18 07:00:41;;;;;;;8.82;7.90;;;11.40;99.90;;;;;;5072153;28;20036;-82
2021/09/18 07:03:07;;;;;;;9.10;7.95;;;11.40;99.90;;;;;;5090629;28;20020;-82
2021/09/18 07:05:33;;;;;;;8.15;7.25;;;11.40;99.90;;;;;;5087438;28;20040;-82
2021/09/18 07:07:59;;;;;;;8.93;7.68;;;11.50;99.90;;;;;;5087860;28;20362;-82
2021/09/18 07:10:24;;;;;;;9.30;7.80;;;11.40;99.90;;;;;;5090015;28;20034;-82
2021/09/18 07:12:50;;;;;;;10.60;8.18;;;11.40;99.90;;;;;;5094081;28;20111;-82
2021/09/18 07:15:16;;;;;;;9.23;7.95;;;11.50;99.90;;;;;;5092511;28;20040;-81
2021/09/18 07:17:41;;;;;;;8.95;8.05;;;11.50;99.90;;;;;;5093390;28;20028;-82
2021/09/18 07:20:08;;;;;;;9.02;7.40;;;11.50;99.90;;;;;;5092915;28;20481;-81
2021/09/18 07:22:34;;;;;;;9.93;8.25;;;11.50;99.90;;;;;;5093879;28;20024;-81
2021/09/18 07:24:59;;;;;;;11.38;7.65;;;11.60;99.90;;;;;;5092026;28;20032;-82
2021/09/18 07:27:26;;;;;;;8.60;7.70;;;11.60;99.90;;;;;;5093527;28;20012;-82
2021/09/18 07:29:51;;;;;;;8.63;7.00;;;11.70;99.90;;;;;;5092725;28;20036;-82
2021/09/18 07:32:19;;;;;;;7.20;6.55;;;11.70;99.90;;;;;;5094423;28;20034;-82
2021/09/18 07:34:45;;;;;;;9.20;6.93;;;11.70;99.90;;;;;;5093414;28;20111;-83
2021/09/18 07:37:11;;;;;;;7.25;6.47;;;11.70;99.90;;;;;;5093592;28;20016;-81
2021/09/18 07:39:37;;;;;;;8.45;7.07;;;11.80;99.90;;;;;;5091824;28;20097;-81
2021/09/18 07:42:03;;;;;;;6.68;6.00;;;11.70;99.90;;;;;;5091697;28;20012;-82
2021/09/18 07:44:29;;;;;;;6.40;5.80;;;11.80;99.90;;;;;;5093463;28;20105;-82
2021/09/18 07:46:55;;;;;;;8.25;6.10;;;11.80;99.90;;;;;;5094009;28;20032;-82
2021/09/18 07:49:20;;;;;;;7.50;6.18;;;11.90;99.90;;;;;;5093526;28;20039;-82
2021/09/18 07:51:47;;;;;;;7.10;6.40;;;11.90;99.90;;;;;;5092350;28;20035;-83
2021/09/18 07:54:13;;;;;;;6.90;6.20;;;11.90;99.90;;;;;;5092055;28;20035;-82
2021/09/18 07:56:39;;;;;;;8.10;6.53;;;12.00;99.90;;;;;;5109287;28;20024;-82
2021/09/18 07:59:04;;;;;;;7.13;6.43;;;12.00;99.90;;;;;;5095836;28;20043;-82
2021/09/18 08:01:30;;;;;;;6.43;5.82;;;12.00;99.90;;;;;;5093196;28;20053;-82
2021/09/18 08:04:03;;;;;;;6.65;5.93;;;11.90;99.90;;;;;;5093353;28;20028;-81
2021/09/18 08:06:30;;;;;;;8.88;5.55;;;11.90;99.90;;;;;;5073655;28;20074;-81
2021/09/18 08:08:56;;;;;;;7.55;5.53;;;11.90;99.90;;;;;;5083950;28;20012;-82
2021/09/18 08:11:23;;;;;;;4.88;4.38;;;11.90;99.90;;;;;;5093076;28;20024;-79
2021/09/18 08:13:50;;;;;;;5.38;4.68;;;11.90;99.90;;;;;;5092919;28;20039;-81
2021/09/18 08:16:16;;;;;;;4.50;4.10;;;12.00;99.90;;;;;;5092224;28;20047;-79
2021/09/18 08:18:43;;;;;;;4.32;3.92;;;12.00;99.90;;;;;;5092649;28;20081;-80
2021/09/18 08:21:09;;;;;;;4.97;4.10;;;12.10;99.90;;;;;;5091652;28;20517;-80
2021/09/18 08:23:35;;;;;;;5.18;4.53;;;12.10;99.90;;;;;;5090582;28;20047;-80
2021/09/18 08:26:01;;;;;;;4.18;3.60;;;12.20;99.90;;;;;;5092173;28;20075;-79
2021/09/18 08:28:26;;;;;;;3.50;3.20;;;12.20;99.90;;;;;;5093010;28;20487;-78
2021/09/18 08:30:52;;;;;;;3.38;3.15;;;12.20;99.90;;;;;;5093129;28;20032;-82
2021/09/18 08:33:18;;;;;;;3.22;3.03;;;12.30;99.90;;;;;;5091303;28;20023;-81
2021/09/18 08:35:43;;;;;;;3.00;2.72;;;12.30;99.90;;;;;;5092440;28;20058;-79
2021/09/18 08:38:09;;;;;;;3.08;2.88;;;12.30;99.90;;;;;;5092614;28;20051;-79
2021/09/18 08:40:37;;;;;;;3.25;2.97;;;12.40;99.90;;;;;;5091135;28;20112;-78
2021/09/18 08:43:04;;;;;;;3.70;3.40;;;12.30;99.90;;;;;;5078512;28;20036;-79
2021/09/18 08:45:30;;;;;;;3.25;2.97;;;12.40;99.90;;;;;;5091483;28;20542;-79
2021/09/18 08:47:57;;;;;;;4.43;3.67;;;12.40;99.90;;;;;;5092197;28;20020;-79
2021/09/18 08:50:23;;;;;;;3.05;2.85;;;12.40;99.90;;;;;;5090587;28;20040;-79
2021/09/18 08:52:50;;;;;;;3.55;3.10;;;12.50;99.90;;;;;;5088749;28;20028;-79
2021/09/18 08:55:16;;;;;;;3.00;2.80;;;12.70;99.90;;;;;;5090359;28;20040;-79
2021/09/18 08:57:43;;;;;;;2.55;2.35;;;12.70;99.90;;;;;;5090104;28;20032;-79
2021/09/18 09:00:29;;;;;;;3.22;2.92;;;12.80;99.90;;;;;;5091308;28;20088;-79
2021/09/18 09:02:56;;;;;;;3.45;3.15;;;12.80;99.90;;;;;;5087898;28;20028;-78
2021/09/18 09:05:28;;;;;;;4.13;3.42;;;12.90;99.90;;;;;;5089193;28;20032;-77
2021/09/18 09:08:14;;;;;;;3.50;3.17;;;13.00;99.90;;;;;;5089408;28;20024;-78
2021/09/18 09:10:43;;;;;;;3.63;2.72;;;13.10;99.90;;;;;;5089773;28;20044;-78
2021/09/18 09:13:18;;;;;;;3.00;2.80;;;13.10;99.90;;;;;;5092284;28;20020;-78
2021/09/18 09:15:44;;;;;;;3.25;3.00;;;13.30;99.90;;;;;;5091869;28;20028;-78
2021/09/18 09:18:36;;;;;;;3.47;3.03;;;13.40;99.90;;;;;;5092562;28;20046;-80
2021/09/18 09:21:27;;;;;;;3.40;3.17;;;13.40;99.90;;;;;;5090818;28;20035;-79
2021/09/18 09:24:06;;;;;;;3.13;2.92;;;13.50;99.90;;;;;;5090461;28;20024;-80
2021/09/18 09:26:33;;;;;;;3.45;3.15;;;13.40;99.90;;;;;;5087494;28;20044;-79
2021/09/18 09:28:59;;;;;;;3.78;3.47;;;13.30;99.90;;;;;;5090575;28;20118;-79
2021/09/18 09:31:27;;;;;;;4.82;4.22;;;13.30;99.90;;;;;;5092630;28;20048;-79
2021/09/18 09:33:55;;;;;;;4.75;4.22;;;13.20;99.90;;;;;;5090785;28;20078;-80
2021/09/18 09:36:21;;;;;;;4.60;4.15;;;13.00;99.90;;;;;;5093766;28;20024;-80
2021/09/18 09:38:51;;;;;;;4.82;4.50;;;13.10;99.90;;;;;;5091630;28;20173;-79
2021/09/18 09:41:33;;;;;;;4.63;4.20;;;13.00;99.90;;;;;;5092144;28;20028;-80
2021/09/18 09:44:04;;;;;;;4.32;4.00;;;13.00;99.90;;;;;;5092862;28;20016;-79
2021/09/18 09:46:30;;;;;;;5.00;4.60;;;12.90;99.90;;;;;;5091662;28;20389;-80
2021/09/18 09:49:11;;;;;;;4.50;4.10;;;13.00;99.90;;;;;;5089355;28;20031;-79
2021/09/18 09:51:38;;;;;;;4.43;4.07;;;12.90;99.90;;;;;;5090019;28;20138;-79
2021/09/18 09:54:24;;;;;;;4.97;4.57;;;12.90;99.90;;;;;;5091864;28;20377;-79
2021/09/18 09:57:13;;;;;;;5.13;4.72;;;12.90;99.90;;;;;;5093609;28;20048;-79
2021/09/18 09:59:39;;;;;;;5.00;4.55;;;13.00;99.90;;;;;;5091120;28;20036;-79
2021/09/18 10:02:10;;;;;;;4.47;4.13;;;13.10;99.90;;;;;;5092065;28;20053;-80
2021/09/18 10:04:36;;;;;;;5.22;4.22;;;13.10;99.90;;;;;;5080158;28;20095;-79
2021/09/18 10:07:05;;;;;;;4.50;4.20;;;13.10;99.90;;;;;;5071618;28;20021;-80
2021/09/18 10:09:33;;;;;;;5.30;3.55;;;13.10;99.90;;;;;;5080442;28;20392;-79
2021/09/18 10:11:59;;;;;;;3.85;3.50;;;13.10;99.90;;;;;;5091632;28;20058;-80
2021/09/18 10:14:27;;;;;;;4.95;3.50;;;13.10;99.90;;;;;;5089370;28;20067;-80
2021/09/18 10:16:56;;;;;;;4.28;3.95;;;13.00;99.90;;;;;;5089924;28;20477;-80
2021/09/18 10:19:42;;;;;;;4.10;3.70;;;13.10;99.90;;;;;;5090465;28;20131;-80
2021/09/18 10:24:56;;;;;;;5.95;3.95;;;13.00;99.90;;;;;;5089321;28;20054;-81
2021/09/18 10:27:24;;;;;;;4.20;3.78;;;13.00;99.90;;;;;;5090208;28;20024;-79
2021/09/18 10:29:51;;;;;;;4.78;4.40;;;13.00;99.90;;;;;;5090162;28;20896;-80
2021/09/18 10:32:20;;;;;;;4.70;4.30;;;13.00;99.90;;;;;;5090161;28;20032;-79
2021/09/18 10:34:45;;;;;;;4.93;4.03;;;13.00;99.90;;;;;;5089465;28;20028;-80
2021/09/18 10:37:34;;;;;;;4.70;4.20;;;13.00;99.90;;;;;;5090510;28;20587;-79
2021/09/18 10:40:06;;;;;;;3.58;3.25;;;12.90;99.90;;;;;;5085555;28;20052;-79
2021/09/18 10:42:34;;;;;;;3.75;3.55;;;12.90;99.90;;;;;;5088738;28;20016;-79
2021/09/18 10:45:00;;;;;;;3.60;3.40;;;12.90;99.90;;;;;;5094214;28;20078;-78
2021/09/18 10:47:48;;;;;;;3.85;3.55;;;12.90;99.90;;;;;;5093676;28;20083;-80
2021/09/18 10:50:24;;;;;;;4.93;3.55;;;12.90;99.90;;;;;;5074465;28;20059;-79
2021/09/18 10:53:09;;;;;;;3.85;3.55;;;13.00;99.90;;;;;;5086972;28;20028;-79
2021/09/18 10:55:56;;;;;;;4.18;3.78;;;13.00;99.90;;;;;;5091905;28;20397;-80
2021/09/18 10:58:24;;;;;;;4.45;3.40;;;13.00;99.90;;;;;;5071881;28;20055;-79
2021/09/18 11:01:01;;;;;;;3.60;3.38;;;13.00;99.90;;;;;;5092058;28;20388;-79
2021/09/18 11:03:44;;;;;;;3.88;3.47;;;13.10;99.90;;;;;;5092450;28;20028;-79
2021/09/18 11:06:37;;;;;;;4.18;3.78;;;13.10;99.90;;;;;;5099108;28;20548;-78
2021/09/18 11:09:03;;;;;;;4.30;3.90;;;13.10;99.90;;;;;;5093247;28;20594;-78
2021/09/18 11:11:33;;;;;;;3.65;3.40;;;13.20;99.90;;;;;;5093770;28;20016;-80
2021/09/18 11:14:08;;;;;;;3.65;3.42;;;13.20;99.90;;;;;;5094369;28;20060;-80
2021/09/18 11:16:36;;;;;;;3.70;3.40;;;13.30;99.90;;;;;;5094327;28;20084;-80
2021/09/18 11:19:08;;;;;;;3.47;3.17;;;13.50;99.90;;;;;;5092795;28;20044;-80
2021/09/18 11:21:37;;;;;;;3.05;2.85;;;13.60;99.90;;;;;;5094334;28;20020;-80
2021/09/18 11:24:04;;;;;;;2.63;2.42;;;13.50;99.90;;;;;;5094296;28;20480;-80
2021/09/18 11:26:31;;;;;;;3.63;2.72;;;13.60;99.90;;;;;;5094001;28;20134;-80
2021/09/18 11:29:07;;;;;;;3.75;2.72;;;13.70;99.90;;;;;;5090868;28;20115;-77
2021/09/18 11:31:33;;;;;;;2.65;2.55;;;13.70;99.90;;;;;;5092060;28;20091;-77
2021/09/18 11:34:00;;;;;;;2.95;2.70;;;13.90;99.90;;;;;;5092821;28;20153;-77
2021/09/18 11:36:26;;;;;;;4.45;2.88;;;14.00;99.90;;;;;;5095121;28;20012;-77
2021/09/18 11:38:51;;;;;;;2.85;2.30;;;14.00;99.90;;;;;;5093065;28;20393;-77
2021/09/18 11:41:20;;;;;;;2.35;2.15;;;14.20;99.90;;;;;;5093798;28;20028;-78
2021/09/18 11:43:46;;;;;;;3.15;2.75;;;14.20;99.90;;;;;;5092010;28;20420;-77
2021/09/18 11:46:23;;;;;;;2.60;2.40;;;14.20;99.90;;;;;;5094163;28;20020;-76
2021/09/18 11:49:00;;;;;;;2.83;2.63;;;14.20;99.90;;;;;;5083829;28;20105;-77
2021/09/18 11:51:26;;;;;;;3.15;2.92;;;14.20;99.90;;;;;;5091956;28;20566;-77
2021/09/18 11:54:03;;;;;;;3.78;3.42;;;14.20;99.90;;;;;;5089230;28;20012;-77
2021/09/18 11:56:29;;;;;;;3.38;2.88;;;14.10;99.90;;;;;;5091728;28;20486;-77
2021/09/18 11:58:54;;;;;;;5.00;4.50;;;14.10;99.90;;;;;;5090471;28;20077;-78
2021/09/18 12:01:20;;;;;;;4.38;3.92;;;14.10;99.90;;;;;;5091702;28;20046;-77
2021/09/18 12:03:46;;;;;;;9.05;8.20;;;14.00;99.90;;;;;;5088877;28;20105;-77
2021/09/18 12:06:16;;;;;;;4.68;4.25;;;13.90;99.90;;;;;;5091367;28;20107;-77
2021/09/18 12:08:46;;;;;;;5.80;5.05;;;13.90;99.90;;;;;;5090599;28;20020;-81
2021/09/18 12:11:13;;;;;;;6.88;5.43;;;13.80;99.90;;;;;;5092312;28;20032;-78
2021/09/18 12:13:42;;;;;;;3.85;3.45;;;13.80;99.90;;;;;;5091050;28;20393;-79
2021/09/18 12:16:09;;;;;;;4.55;3.33;;;13.80;99.90;;;;;;5092140;28;20039;-78
2021/09/18 12:18:39;;;;;;;3.83;3.47;;;13.90;99.90;;;;;;5089353;28;20386;-79
2021/09/18 12:21:15;;;;;;;4.38;2.58;;;14.00;99.90;;;;;;5090535;28;20111;-79
2021/09/18 12:23:49;;;;;;;3.42;2.65;;;14.00;99.90;;;;;;5088425;28;20020;-79
2021/09/18 12:26:16;;;;;;;3.95;3.17;;;14.10;99.90;;;;;;5089961;28;20039;-79
2021/09/18 12:28:43;;;;;;;3.05;2.80;;;14.30;99.90;;;;;;5088774;28;20060;-79
2021/09/18 12:31:19;;;;;;;3.00;2.80;;;14.20;99.90;;;;;;5090683;28;20413;-79
2021/09/18 12:33:47;;;;;;;3.42;3.22;;;14.20;99.90;;;;;;5080217;28;20019;-79
2021/09/18 12:36:15;;;;;;;3.70;2.95;;;14.20;99.90;;;;;;5091874;28;20109;-79
2021/09/18 12:38:42;;;;;;;4.05;3.63;;;14.20;99.90;;;;;;5087391;28;20032;-79
2021/09/18 12:41:11;;;;;;;5.18;3.28;;;14.10;99.90;;;;;;5089576;28;20028;-80
2021/09/18 12:43:38;;;;;;;3.30;2.78;;;14.00;99.90;;;;;;5105330;28;20013;-80
2021/09/18 12:46:06;;;;;;;3.50;3.15;;;14.00;99.90;;;;;;5090219;28;20070;-80
2021/09/18 12:48:32;;;;;;;2.85;2.65;;;14.10;99.90;;;;;;5089882;28;20379;-80